Архив погоды на Мысе Терпения

Метеограмма Мыс Терпения
Вторник, 14 Августа
Время местн. Темп Ветер Видим Явления Облачность нижн/средн/верх Атм. давл. Влжн Точка росы ВНГО R Сост. почвы Tg s
Напр Скр Прв ур.ст ур.м изм
22:00 +9.8° Ю,Ю-З 1 3 0.5 км туман, небо видно ясно 761 762 +0.3 97% +9.4° более 2.5 км - - - -
19:00 +10.1° Ю 5 6 500 м туман усиливается неба не видно 761 762 +0.6 97% +9.6° - 0 - - -
16:00 +12.9° Ю 2 3 20 км туман незначительная облачность 760 761 0 91% +11.4° 1 км - - - -
13:00 +11.4° С 1 5 500 м туман неба не видно 760 761 +0.2 97% +11° - - - - -
10:00 +9.1° С 3 5 0.5 км туман ослабевает неба не видно 760 761 +1.2 98% +8.8° - - - - -
07:00 +8° С 4 6 200 м туман неба не видно 759 760 +0.7 98% +7.7° - 0 Влажная (без луж) +8° -
04:00 +7.5° С 4 8 200 м туман неба не видно 758 759 +0.5 98% +7.2° - - - - -
01:00 +7.7° С 5 6 0.2 км туман неба не видно 758 758 +0.2 98% +7.4° - - - - -
Понедельник, 13 Августа
Время местн. Темп Ветер Видим Явления Облачность нижн/средн/верх Атм. давл. Влжн Точка росы ВНГО R Сост. почвы Tg s
Напр Скр Прв ур.ст ур.м изм
22:00 +10.5° В 4 6 50 м туман неба не видно 758 758 +0.5 98% +10.2° - - - - -
19:00 +8.5° С,С-В 3 5 0.2 км туман неба не видно 757 758 +0.4 98% +8.2° - 0 - - -
16:00 +11.1° В 5 6 0.2 км туман неба не видно 757 757 -0.6 99% +10.9° - - - - -
13:00 +9° С 4 5 менее 100 м туман усиливается неба не видно 757 758 +0.1 98% +8.7° - - - - -
10:00 +9.4° С-В 2 4 200 м туман {ливневые осадки} неба не видно 757 758 +0.1 98% +9.1° - - - - -
07:00 +8.4° С-В 2 2 0.2 км туман {ливневые осадки} неба не видно 757 758 +0.6 98% +8.1° - 0.4 Влажная (без луж) - -
04:00 +11.1° В,Ю-В 3 4 500 м туман неба не видно 757 757 -0.3 99% +10.9° - - - - -
01:00 - +8.6° С,С-В 2 3 - - - 757 758 +0.4 97% +8.2° - - - - -
Воскресенье, 12 Августа
Время местн. Темп Ветер Видим Явления Облачность нижн/средн/верх Атм. давл. Влжн Точка росы ВНГО R Сост. почвы Tg s
Напр Скр Прв ур.ст ур.м изм
22:00 +11.2° З,С-З 2 8 500 м туман, небо видно ясно 757 757 +1.4 98% +10.9° более 2.5 км - - - -
19:00 +11.4° Ю,Ю-З 7 8 0.5 км туман неба не видно 755 756 +0.4 98% +11.1° - 3 - - -
16:00 +11.7° Ю 8 11 200 м туман {ливневые осадки} неба не видно 755 756 -0.5 98% +11.4° - - - - -
13:00 +11.4° Ю 8 11 500 м туман {ливневые осадки} неба не видно 755 756 -0.5 98% +11.1° - - - - -
10:00 +10.3° Ю 7 9 0.5 км туман {ливневые осадки, морось} неба не видно 756 756 -0.3 98% +10° - - - - -
07:00 +10.2° Ю 6 9 0.2 км слабая непрерывная морось {туман} неба не видно 756 757 0 98% +9.9° - 0.5 Влажная (без луж) - -
04:00 +10.7° Ю,Ю-В 5 7 0.2 км туман неба не видно 756 757 -0.5 98% +10.4° - - - - -
01:00 +11.1° Ю 5 6 0.2 км туман усиливается неба не видно 757 757 -0.2 98% +10.8° - - - - -
Суббота, 11 Августа
Время местн. Темп Ветер Видим Явления Облачность нижн/средн/верх Атм. давл. Влжн Точка росы ВНГО R Сост. почвы Tg s
Напр Скр Прв ур.ст ур.м изм
22:00 +10.7° Ю-В 3 4 0.5 км туман неба не видно 757 758 +0.3 98% +10.4° - - - - -
19:00 +10.8° Ю-В 4 6 20 км - облачно с прояснениями 757 757 +0.1 95% +10.1° 1 км 0 - - -